ADDS METAR Data INFO
IDs: Format: Raw Decoded Include TAF

Data at: 1955 UTC 15 Dec 2017

KIGQ 151935Z AUTO 27012G17KT 10SM OVC039 00/M07 A2993 RMK AO2 T00001066
KIGQ 151915Z AUTO 29010G18KT 10SM OVC037 00/M07 A2993 RMK AO2 T10011071
KIGQ 151855Z AUTO 28008G21KT 10SM OVC039 00/M07 A2993 RMK AO2 T10011075
KIGQ 151835Z AUTO 29012G23KT 10SM BKN041 00/M07 A2992 RMK AO2 T00021074
KIGQ 151815Z AUTO 30012G19KT 10SM SCT041 00/M08 A2992 RMK AO2 T00021077
KIGQ 151755Z AUTO 29012G18KT 10SM SCT039 SCT047 00/M08 A2993 RMK AO2 T10011082 11001 21040
KIGQ 151735Z AUTO 29014G23KT 10SM BKN039 BKN047 M01/M09 A2994 RMK AO2 T10111087
KIGQ 151715Z AUTO 29009G23KT 10SM OVC037 M01/M08 A2994 RMK AO2 T10151082
KIGQ 151655Z AUTO 28015G25KT 10SM OVC035 M01/M08 A2995 RMK AO2 T10101081
KIGQ 151635Z AUTO 29013G18KT 10SM OVC035 M02/M08 A2995 RMK AO2 T10161082
KIGQ 151615Z AUTO 28014G21KT 10SM OVC033 M02/M08 A2995 RMK AO2 T10201083
KIGQ 151555Z AUTO 28010G14KT 10SM OVC031 M02/M07 A2995 RMK AO2 T10251074
KIGQ 151535Z AUTO 30008G15KT 10SM -SN OVC026 M03/M07 A2995 RMK AO2 T10261067
KIGQ 151515Z AUTO 27014KT 10SM -SN OVC024 M03/M06 A2994 RMK AO2 T10271063
KIGQ 151455Z AUTO 27009KT 10SM -SN OVC024 M03/M06 A2994 RMK AO2 T10281061
KIGQ 151435Z AUTO 27009G14KT 10SM OVC024 M03/M06 A2994 RMK AO2 T10301062
KIGQ 151415Z AUTO 27011G17KT 10SM -SN OVC022 M03/M06 A2994 RMK AO2 T10301060
KIGQ 151355Z AUTO 27012KT 10SM -SN OVC022 M03/M06 A2994 RMK AO2 T10301062
KIGQ 151335Z AUTO 27010KT 10SM OVC022 M03/M06 A2994 RMK AO2 T10341062
KIGQ 151315Z AUTO 25009KT 10SM OVC022 M03/M06 A2994 RMK AO2 T10351065
KIGQ 151255Z AUTO 25009G16KT 10SM OVC022 M04/M07 A2994 RMK AO2 T10361066
KIGQ 151235Z AUTO 25011G16KT 10SM OVC022 M04/M07 A2994 RMK AO2 T10361067
KIGQ 151215Z AUTO 24010KT 10SM OVC024 M04/M07 A2993 RMK AO2 T10381070
KIGQ 151155Z AUTO 25009KT 10SM OVC024 M04/M07 A2994 RMK AO2 T10401072 11040 21103
KIGQ 151135Z AUTO 24011KT 10SM OVC024 M04/M07 A2994 RMK AO2 T10421075
KIGQ 151115Z AUTO 23011G16KT 10SM OVC024 M04/M08 A2994 RMK AO2 T10431076
KIGQ 151055Z AUTO 23009KT 10SM OVC028 M05/M08 A2994 RMK AO2 T10461080
KIGQ 151035Z AUTO 23007KT 10SM OVC030 M05/M08 A2995 RMK AO2 T10501083
KIGQ 151015Z AUTO 22008KT 10SM BKN028 OVC033 M05/M08 A2996 RMK AO2 T10521085
KIGQ 150955Z AUTO 23008KT 10SM OVC028 M05/M09 A2997 RMK AO2 T10551087
KIGQ 150935Z AUTO 21007KT 10SM OVC026 M06/M09 A2997 RMK AO2 T10571086
KIGQ 150915Z AUTO 21007KT 10SM OVC026 M06/M09 A2998 RMK AO2 T10601087
KIGQ 150855Z AUTO 21005KT 10SM OVC028 M06/M09 A2998 RMK AO2 T10621086
KIGQ 150835Z AUTO 21005KT 10SM OVC028 M06/M09 A2999 RMK AO2 T10631091
KIGQ 150815Z AUTO 20004KT 10SM OVC028 M06/M09 A2999 RMK AO2 T10651086
KIGQ 150755Z AUTO 22004KT 10SM OVC028 M06/M09 A3001 RMK AO2 T10651093
KIGQ 150735Z AUTO 23004KT 10SM OVC028 M07/M09 A3001 RMK AO2 T10711095
KIGQ 150715Z AUTO 23003KT 10SM SCT028 OVC100 M08/M10 A3001 RMK AO2 T10811097
KIGQ 150655Z AUTO 19003KT 10SM OVC100 M09/M11 A3001 RMK AO2 T10911107
KIGQ 150635Z AUTO 00000KT 10SM OVC100 M10/M11 A3002 RMK AO2 T10981114
KIGQ 150615Z AUTO 00000KT 10SM BKN100 M10/M12 A3003 RMK AO2 T11011119
KIGQ 150555Z AUTO 00000KT 10SM SCT100 M10/M12 A3004 RMK AO2 T11001118 11047 21100 410121100
KIGQ 150535Z AUTO 00000KT 10SM SCT100 M09/M11 A3004 RMK AO2 T10941110
KIGQ 150515Z AUTO 00000KT 10SM CLR M10/M11 A3005 RMK AO2 T10961110
KIGQ 150455Z AUTO 00000KT 10SM CLR M10/M11 A3006 RMK AO2 T10961112
KIGQ 150435Z AUTO 00000KT 10SM CLR M09/M11 A3006 RMK AO2 T10951113
KIGQ 150415Z AUTO 00000KT 10SM CLR M09/M11 A3008 RMK AO2 T10951115
KIGQ 150355Z AUTO 00000KT 10SM CLR M09/M12 A3008 RMK AO2 T10941117
KIGQ 150335Z AUTO 00000KT 10SM CLR M09/M11 A3008 RMK AO2 T10861112
KIGQ 150315Z AUTO 00000KT 10SM CLR M08/M11 A3008 RMK AO2 T10841115
KIGQ 150255Z AUTO 00000KT 10SM CLR M09/M12 A3008 RMK AO2 T10941117
KIGQ 150235Z AUTO 22003KT 10SM CLR M08/M11 A3008 RMK AO2 T10801111
KIGQ 150215Z AUTO 00000KT 10SM CLR M07/M11 A3008 RMK AO2 T10701111
KIGQ 150155Z AUTO 25003KT 10SM CLR M06/M11 A3008 RMK AO2 T10631115
KIGQ 150135Z AUTO 28003KT 10SM CLR M06/M11 A3009 RMK AO2 T10581112
KIGQ 150115Z AUTO 28004KT 10SM CLR M06/M11 A3009 RMK AO2 T10591111
KIGQ 150055Z AUTO 26003KT 10SM CLR M05/M11 A3009 RMK AO2 T10551106
KIGQ 150035Z AUTO 27003KT 10SM CLR M05/M11 A3008 RMK AO2 T10511108
KIGQ 150015Z AUTO 00000KT 10SM CLR M05/M11 A3008 RMK AO2 T10471110
KIGQ 142355Z AUTO 25003KT 10SM CLR M05/M11 A3008 RMK AO2 T10491106 11013 21049
KIGQ 142335Z AUTO 27004KT 10SM CLR M04/M11 A3008 RMK AO2 T10451107
KIGQ 142315Z AUTO 26005KT 10SM CLR M04/M10 A3007 RMK AO2 T10421105
KIGQ 142255Z AUTO 26005KT 10SM CLR M04/M10 A3007 RMK AO2 T10401103
KIGQ 142235Z AUTO 27004KT 10SM CLR M04/M10 A3007 RMK AO2 T10371097
KIGQ 142215Z AUTO 27005KT 10SM CLR M03/M09 A3006 RMK AO2 T10321095
KIGQ 142155Z AUTO 27005KT 10SM CLR M03/M09 A3006 RMK AO2 T10281095
KIGQ 142135Z AUTO 26006KT 10SM CLR M02/M10 A3005 RMK AO2 T10251096
KIGQ 142115Z AUTO 26003KT 10SM CLR M02/M09 A3005 RMK AO2 T10221093
KIGQ 142055Z AUTO 24003KT 10SM CLR M02/M09 A3005 RMK AO2 T10221094
KIGQ 142035Z AUTO 28005KT 10SM CLR M02/M09 A3005 RMK AO2 T10201090
KIGQ 142015Z AUTO 25005KT 10SM SCT040 M02/M09 A3004 RMK AO2 T10211090
KIGQ 141955Z AUTO 27005KT 10SM SCT042 M02/M09 A3004 RMK AO2 T10201090
KIGQ 141935Z AUTO 28004KT 10SM CLR M01/M09 A3004 RMK AO2 T10151086
KIGQ 141915Z AUTO 30003KT 10SM CLR M02/M09 A3004 RMK AO2 T10221087
KIGQ 141855Z AUTO 36003KT 10SM CLR M02/M08 A3004 RMK AO2 T10201080
KIGQ 141835Z AUTO 00000KT 10SM CLR M03/M08 A3005 RMK AO2 T10301084
KIGQ 141815Z AUTO 27003KT 10SM CLR M03/M08 A3006 RMK AO2 T10281081
KIGQ 141755Z AUTO 00000KT 10SM SCT048 M03/M08 A3006 RMK AO2 T10351083 11035 21065
KIGQ 141735Z AUTO 27003KT 10SM OVC048 M04/M09 A3007 RMK AO2 T10411086
KIGQ 141715Z AUTO 00000KT 10SM BKN050 M05/M09 A3008 RMK AO2 T10471087
KIGQ 141655Z AUTO 00000KT 10SM BKN050 M05/M09 A3008 RMK AO2 T10501090
KIGQ 141635Z AUTO 00000KT 10SM OVC050 M05/M09 A3009 RMK AO2 T10511090
KIGQ 141615Z AUTO 00000KT 10SM OVC050 M05/M09 A3010 RMK AO2 T10551091
KIGQ 141555Z AUTO 28003KT 10SM OVC050 M06/M09 A3010 RMK AO2 T10571092
KIGQ 141535Z AUTO 29004KT 10SM OVC048 M06/M09 A3008 RMK AO2 T10601095
KIGQ 141515Z AUTO 31004KT 10SM OVC046 M06/M09 A3008 RMK AO2 T10611093
KIGQ 141455Z AUTO 31005KT 10SM BKN041 OVC049 M06/M09 A3006 RMK AO2 T10641095
KIGQ 141435Z AUTO 01004KT 10SM OVC041 M06/M09 A3005 RMK AO2 T10641095
KIGQ 141415Z AUTO 33004KT 10SM OVC046 M06/M09 A3004 RMK AO2 T10651095
KIGQ 141355Z AUTO 32007KT 10SM OVC048 M06/M09 A3002 RMK AO2 T10651095
KIGQ 141335Z AUTO 33005KT 10SM SCT027 SCT039 OVC048 M06/M09 A3001 RMK AO2 T10631092
KIGQ 141315Z AUTO 32007KT 10SM SCT025 BKN041 OVC048 M06/M09 A3000 RMK AO2 T10631092
KIGQ 141255Z AUTO 29006KT 10SM OVC039 M06/M09 A2999 RMK AO2 T10601090
KIGQ 141235Z AUTO 31005KT 10SM SCT031 OVC037 M06/M09 A2999 RMK AO2 T10571087
KIGQ 141215Z AUTO 33006KT 10SM -SN SCT030 BKN038 OVC045 M06/M09 A2999 RMK AO2 T10571087
KIGQ 141155Z AUTO 33006KT 10SM -SN SCT028 OVC039 M06/M09 A2997 RMK AO2 T10561086 11012 21056
KIGQ 141135Z AUTO 32007KT 10SM -SN SCT031 OVC037 M05/M09 A2996 RMK AO2 T10551087
KIGQ 141115Z AUTO 32007KT 10SM -SN OVC034 M05/M08 A2995 RMK AO2 T10551085
KIGQ 141055Z AUTO 31007KT 10SM OVC034 M05/M08 A2994 RMK AO2 T10511080
KIGQ 141035Z AUTO 32009KT 10SM SCT028 OVC037 M05/M08 A2993 RMK AO2 T10471076
KIGQ 141015Z AUTO 34007KT 10SM SCT025 BKN033 OVC040 M04/M07 A2992 RMK AO2 T10431072
KIGQ 140955Z AUTO 32008KT 10SM SCT033 OVC039 M04/M07 A2991 RMK AO2 T10411070
KIGQ 140935Z AUTO 32011KT 10SM OVC039 M04/M07 A2990 RMK AO2 T10401069
KIGQ 140915Z AUTO 34008KT 10SM -SN SCT025 SCT032 OVC039 M03/M06 A2988 RMK AO2 T10351060
KIGQ 140855Z AUTO 33010KT 10SM -SN BKN020 BKN025 OVC039 M03/M05 A2988 RMK AO2 T10301051
KIGQ 140835Z AUTO 34008KT 320V020 7SM -SN BKN015 OVC020 M03/M04 A2989 RMK AO2 T10291045
KIGQ 140815Z AUTO 34008G14KT 7SM -SN BKN017 OVC022 M02/M05 A2987 RMK AO2 T10251046